Last 365 Observations

Red Hills (Beckstoffer)

Daily Data | America/Los_Angeles
as of 11/28/22 4:35 AM PST
Date Daily Max Temp (°F) Time of Max Temp Daily Min Temp (°F) Time of Min Temp Dew Pt (°F) Max RH (%) Min RH (%) Powdery Mildew Stress (pts) Hrs 70-85F (hrs) Hrs > 95F (hrs) Hrs <= 32F (hrs) Hrs <= 28F (hrs) GDDs (DL) Seas GDDs (DL) Chilling <=45F (hrs) Chilling <=45F Seas (hrs) Degree Hrs (hrs) MinBV Day (V)
11/27/22 64.8 1311 22.5 0549 29.7 96 28 - 0.00 0.00 8.1 7.9 3.6 - 11.0 358 0.0 12.5
11/26/22 65.1 1344 27.2 0001 29.8 95 24 - 0.00 0.00 4.4 0.8 3.8 - 12.7 348 0.0 12.6
11/25/22 68.6 1501 28.3 0524 25.4 83 13 - 0.00 0.00 4.5 0.0 4.5 - 15.1 335 7.4 12.6
11/24/22 70.8 1316 32.8 0709 17.3 67 9 - 2.09 0.00 0.0 0.0 6.6 - 9.1 320 24.7 12.6
11/23/22 72.1 1428 27.1 0652 27.7 100 10 - 1.94 0.00 6.6 1.4 5.6 - 11.7 311 18.2 12.6
11/22/22 66.1 1437 24.8 0620 32.6 95 27 - 0.00 0.00 7.9 7.4 4.2 - 10.5 299 0.3 12.6
11/21/22 65.9 1507 19.6 0522 21.7 94 11 - 0.00 0.00 11.8 8.8 3.3 - 15.9 288 0.0 12.5
11/20/22 63.9 1406 17.3 0605 20.3 94 17 - 0.00 0.00 13.7 12.0 2.6 - 16.3 273 0.0 12.5
11/19/22 61.8 1405 21.4 2359 15.6 88 13 - 0.00 0.00 5.7 3.9 2.5 - 15.5 256 0.0 12.6
11/18/22 64.5 1357 27.3 0715 22.0 98 12 - 0.00 0.00 4.3 0.6 3.4 - 9.9 241 0.0 12.6
11/17/22 64.9 1458 23.8 0339 26.4 94 18 - 0.00 0.00 10.8 7.1 3.5 - 15.2 231 0.0 12.5
11/16/22 70.0 1520 23.2 0602 20.8 89 9 - 0.01 0.00 9.8 5.6 4.2 - 15.1 216 8.9 12.6
11/15/22 63.6 1330 23.2 0203 21.9 98 15 - 0.00 0.00 4.9 3.6 3.7 - 8.2 201 0.0 12.6
11/14/22 56.1 1335 21.3 0648 25.1 95 32 - 0.00 0.00 13.3 11.5 1.1 - 15.9 192 0.0 12.5
11/13/22 59.2 1441 23.6 2359 26.4 100 22 - 0.00 0.00 13.2 9.4 1.5 - 16.5 177 0.0 12.6
11/12/22 54.3 1317 28.7 2351 35.7 99 34 - 0.00 0.00 2.0 0.0 0.5 - 15.1 160 0.0 12.7
11/11/22 58.9 1433 25.5 0618 31.2 99 36 - 0.00 0.00 8.1 7.7 1.5 - 15.9 145 0.0 12.6
11/10/22 58.4 1454 24.3 0436 31.0 100 28 - 0.00 0.00 10.7 5.6 1.0 - 16.5 129 0.0 12.6
11/9/22 54.0 1531 29.6 2317 36.1 99 47 - 0.00 0.00 2.0 0.0 0.3 - 15.6 113 0.0 12.5
11/8/22 44.6 1413 38.5 1752 38.6 99 85 - 0.00 0.00 0.0 0.0 0.0 - 24.0 97 0.0 12.6
11/7/22 49.9 1046 30.5 0627 36.6 100 58 - 0.00 0.00 0.8 0.0 0.0 - 20.8 73 0.0 12.6
11/6/22 55.3 1244 37.6 0415 40.1 100 45 - 0.00 0.00 0.0 0.0 0.7 - 9.0 52 0.0 12.7
11/5/22 61.0 1317 45.7 0059 49.4 96 71 - 0.00 0.00 0.0 0.0 3.9 - 0.0 43 0.0 12.8
11/4/22 64.0 1532 32.2 0101 43.1 94 41 - 0.00 0.00 0.0 0.0 4.7 - 3.7 43 0.0 12.6
11/3/22 58.5 1538 24.1 0740 28.0 97 23 - 0.00 0.00 5.8 3.0 1.3 - 15.9 40 0.0 12.5
11/2/22 51.3 1417 28.5 0544 33.3 100 47 - 0.00 0.00 5.7 0.0 0.0 - 15.7 24 0.0 12.5
11/1/22 52.7 0703 31.7 0101 40.9 100 55 - 0.00 0.00 0.1 0.0 0.3 - 8.0 8 0.0 12.6
10/31/22 71.8 1520 33.5 0213 36.2 98 22 20 1.98 0.00 0.0 0.0 6.2 3,657 12.1 - 24.0 12.6
10/30/22 77.8 1440 31.3 0752 36.0 99 17 0 6.71 0.00 0.4 0.0 8.5 3,651 10.0 - 64.0 12.6
10/29/22 72.0 1336 29.4 0432 34.9 98 18 0 1.75 0.00 3.1 0.0 8.2 3,642 7.9 - 28.5 12.6
10/28/22 67.9 1513 28.8 0701 30.2 97 21 0 0.00 0.00 7.2 0.0 5.6 3,634 11.0 - 4.7 12.5
10/27/22 70.5 1545 27.1 0633 27.8 96 16 0 0.10 0.00 7.7 2.6 5.4 3,629 13.8 - 12.9 12.6
10/26/22 66.6 1411 31.6 0101 33.8 94 22 0 0.00 0.00 0.1 0.0 4.2 3,623 4.4 - 0.0 12.6
10/25/22 71.1 1451 42.2 0747 39.2 93 23 0 0.60 0.00 0.0 0.0 7.1 3,619 0.8 - 18.4 12.7
10/24/22 74.2 1524 29.4 0627 36.1 96 14 0 4.11 0.00 6.0 0.0 8.5 3,612 7.9 - 34.1 12.6
10/23/22 65.3 1606 33.1 0056 28.5 90 16 10 0.00 0.00 0.0 0.0 4.0 3,603 10.9 - 0.0 12.6
10/22/22 64.6 1511 45.8 0058 38.6 92 20 20 0.00 0.00 0.0 0.0 5.8 3,599 0.0 - 0.0 12.7
10/21/22 84.3 1420 38.9 0739 42.2 96 13 0 8.41 0.00 0.0 0.0 14.2 3,594 6.9 - 112.6 12.6
10/20/22 92.3 1559 39.6 0722 35.4 89 9 10 3.28 0.00 0.0 0.0 13.6 3,579 4.5 - 166.0 12.6
10/19/22 91.0 1501 38.0 0612 33.4 98 7 20 2.40 0.00 0.0 0.0 18.0 3,566 7.2 - 203.6 12.6
10/18/22 84.2 1516 41.3 0733 43.0 100 17 0 6.32 0.00 0.0 0.0 10.0 3,548 7.0 - 94.4 12.6
10/17/22 76.1 1532 37.9 0316 46.7 100 39 0 5.24 0.00 0.0 0.0 8.0 3,538 7.3 - 46.4 12.6
10/16/22 69.9 1540 37.3 0345 45.6 100 51 0 0.00 0.00 0.0 0.0 5.2 3,530 10.0 - 8.9 12.6
10/15/22 88.2 1450 40.1 0737 44.5 98 20 0 4.13 0.00 0.0 0.0 13.4 3,525 7.6 - 148.5 12.6
10/14/22 93.9 1509 40.6 0728 39.7 96 7 0 2.19 0.00 0.0 0.0 15.6 3,511 5.9 - 197.2 12.6
10/13/22 92.3 1533 42.8 0732 40.8 94 10 0 2.93 0.00 0.0 0.0 15.9 3,496 2.1 - 184.0 12.6
10/12/22 90.4 1545 41.7 0712 42.0 98 12 0 1.76 0.00 0.0 0.0 18.6 3,480 5.2 - 205.1 12.6
10/11/22 89.5 1453 42.4 0723 42.3 94 14 0 3.50 0.00 0.0 0.0 14.3 3,461 4.4 - 171.5 12.6
10/10/22 90.3 1518 42.2 0717 37.6 91 8 10 2.60 0.00 0.0 0.0 18.0 3,447 2.9 - 201.2 12.6
10/9/22 91.9 1257 43.7 0717 39.9 94 10 20 1.37 0.00 0.0 0.0 18.4 3,429 2.1 - 216.6 12.6
10/8/22 93.1 1442 43.0 0705 42.2 99 9 30 1.60 0.00 0.0 0.0 17.5 3,410 3.6 - 222.0 12.6
10/7/22 90.6 1702 43.3 0651 46.5 100 18 40 2.96 0.00 0.0 0.0 15.7 3,393 4.4 - 183.1 12.6
10/6/22 89.5 1449 44.3 0706 48.2 100 19 50 3.60 0.00 0.0 0.0 14.8 3,377 1.9 - 170.4 12.6
10/5/22 89.4 1455 43.2 0658 48.5 99 21 60 3.61 0.00 0.0 0.0 16.4 3,362 3.7 - 184.0 12.6
10/4/22 89.0 1447 42.2 0712 47.9 100 23 70 4.20 0.00 0.0 0.0 15.8 3,346 4.1 - 170.6 12.6
10/3/22 85.0 1505 39.6 0658 47.3 100 27 50 8.97 0.00 0.0 0.0 14.6 3,330 7.0 - 134.6 12.6
10/2/22 79.9 1434 41.9 0705 46.6 100 23 30 8.33 0.00 0.0 0.0 11.2 3,316 4.8 - 100.4 12.6
10/1/22 88.0 1404 42.0 0705 45.7 99 17 40 4.54 0.00 0.0 0.0 14.9 3,304 3.3 - 162.2 12.6
9/30/22 88.6 1626 42.4 0631 44.8 99 14 50 5.14 0.00 0.0 0.0 14.6 3,289 4.2 - 164.5 12.6
9/29/22 84.5 1641 47.3 0715 49.5 100 15 30 8.70 0.00 0.0 0.0 15.0 3,275 0.0 - 129.4 12.7
9/28/22 79.3 1447 47.2 0345 45.6 84 18 10 8.88 0.00 0.0 0.0 14.9 3,260 0.0 - 99.9 12.6
9/27/22 88.5 1534 39.7 0714 44.6 100 17 20 4.28 0.00 0.0 0.0 16.4 3,245 5.3 - 153.6 12.6
9/26/22 90.4 1555 47.4 0056 49.8 98 24 30 2.78 0.00 0.0 0.0 17.8 3,229 0.0 - 210.5 12.6
9/25/22 91.3 1601 42.3 0655 45.1 100 15 40 3.01 0.00 0.0 0.0 18.1 3,211 2.7 - 211.8 12.6
9/24/22 89.5 1443 43.3 0700 43.3 100 9 50 2.79 0.00 0.0 0.0 18.0 3,193 2.9 - 204.5 12.6
9/23/22 87.2 1656 43.7 0711 47.3 100 17 60 5.27 0.00 0.0 0.0 14.4 3,175 2.1 - 157.9 12.7
9/22/22 78.6 1747 41.3 0648 47.0 100 27 40 6.84 0.00 0.0 0.0 11.9 3,160 5.0 - 79.5 12.7
9/21/22 69.9 1602 48.0 0059 50.3 98 44 50 0.00 0.00 0.0 0.0 9.0 3,148 0.0 - 9.9 12.8
9/20/22 68.1 1310 44.3 0634 49.5 100 45 60 0.00 0.00 0.0 0.0 7.6 3,139 0.9 - 4.3 12.7
9/19/22 68.8 1328 49.2 0640 52.5 99 53 70 0.00 0.00 0.0 0.0 6.6 3,132 0.0 - 2.0 12.6
9/18/22 58.0 1706 50.6 0153 52.6 99 76 80 0.00 0.00 0.0 0.0 4.2 3,125 0.0 - 0.0 12.7
9/17/22 73.5 1346 44.3 0519 45.0 98 29 90 2.70 0.00 0.0 0.0 10.3 3,121 0.6 - 28.8 12.7
9/16/22 81.6 1544 42.6 0632 46.2 96 27 70 9.54 0.00 0.0 0.0 15.3 3,111 2.9 - 122.4 12.7
9/15/22 79.5 1602 43.2 0646 45.8 94 26 50 7.40 0.00 0.0 0.0 13.2 3,095 1.1 - 76.9 12.7
9/14/22 75.1 1525 53.0 0426 45.1 76 31 60 4.67 0.00 0.0 0.0 11.3 3,082 0.0 - 45.6 12.7
9/13/22 78.5 1508 54.5 0047 46.6 71 31 40 7.03 0.00 0.0 0.0 15.0 3,071 0.0 - 78.4 12.7
9/12/22 92.1 1437 63.8 0635 41.7 49 16 20 7.74 0.00 0.0 0.0 24.6 3,056 0.0 - 231.2 12.7
9/11/22 88.5 1543 62.0 0536 33.2 45 8 0 7.74 0.00 0.0 0.0 24.5 3,031 0.0 - 232.9 12.7
9/10/22 92.5 1452 52.9 0655 41.2 63 14 0 3.88 0.00 0.0 0.0 21.5 3,007 0.0 - 220.0 12.6
9/9/22 104.4 1419 55.3 0630 41.9 63 10 0 2.32 7.35 0.0 0.0 28.7 2,985 0.0 - 376.6 12.6
9/8/22 106.1 1523 58.0 0641 43.0 64 10 0 5.07 8.94 0.0 0.0 33.6 2,957 0.0 - 466.0 12.7
9/7/22 102.8 1438 62.2 0417 44.1 58 12 0 4.64 8.70 0.0 0.0 33.8 2,923 0.0 - 457.5 12.6
9/6/22 111.8 1526 60.4 0639 43.6 61 6 0 2.68 9.69 0.0 0.0 35.8 2,889 0.0 - 508.0 12.7
9/5/22 108.0 1508 55.6 0640 42.3 70 9 0 2.28 8.76 0.0 0.0 34.3 2,854 0.0 - 503.7 12.7
9/4/22 102.9 1712 47.6 0638 41.8 88 8 10 2.68 6.52 0.0 0.0 28.2 2,819 0.0 - 406.2 12.7
9/3/22 94.9 1614 56.8 0101 43.3 68 13 0 6.02 0.00 0.0 0.0 28.6 2,791 0.0 - 333.1 12.7
9/2/22 100.1 1455 43.3 0626 32.8 76 3 0 5.62 5.84 0.0 0.0 26.3 2,763 2.4 - 366.7 12.6
9/1/22 102.6 1535 44.2 0642 37.4 81 7 0 2.76 6.33 0.0 0.0 26.0 2,736 1.2 - 371.9 12.6
8/31/22 100.5 1508 40.7 0642 32.4 87 5 0 1.61 4.26 0.0 0.0 22.5 2,710 4.1 - 308.2 12.6
8/30/22 95.5 1356 47.9 0629 44.6 90 15 0 1.83 0.18 0.0 0.0 21.6 2,688 0.0 - 284.5 12.6
8/29/22 96.1 1507 50.0 0630 46.2 90 15 0 2.95 0.36 0.0 0.0 22.9 2,666 0.0 - 285.2 12.7
8/28/22 92.6 1517 49.3 0646 45.6 92 13 0 2.86 0.00 0.0 0.0 22.1 2,643 0.0 - 266.5 12.7
8/27/22 94.1 1251 50.4 0640 48.2 82 19 0 2.47 0.00 0.0 0.0 22.8 2,621 0.0 - 275.0 12.6
8/26/22 96.3 1639 48.3 0644 44.0 92 8 0 4.32 0.35 0.0 0.0 24.5 2,598 0.0 - 319.1 12.6
8/25/22 95.7 1410 50.1 0625 47.8 91 11 10 2.13 0.15 0.0 0.0 23.9 2,574 0.0 - 302.6 12.6
8/24/22 100.1 1510 51.3 0607 47.6 81 13 20 1.98 4.43 0.0 0.0 26.0 2,550 0.0 - 338.4 12.6
8/23/22 98.4 1349 53.5 0643 50.2 93 17 10 7.14 3.63 0.0 0.0 27.9 2,524 0.0 - 346.7 12.7
8/22/22 91.5 1638 69.2 0513 49.5 62 21 0 9.41 0.00 0.0 0.0 28.3 2,496 0.0 - 319.7 12.7
8/21/22 98.1 1308 54.3 0639 46.9 69 17 0 5.87 2.91 0.0 0.0 28.4 2,468 0.0 - 358.7 12.6
8/20/22 103.3 1405 53.4 0629 44.8 77 11 10 5.34 7.15 0.0 0.0 30.6 2,439 0.0 - 417.5 12.6
8/19/22 100.0 1426 50.8 0631 35.1 55 5 0 6.53 5.33 0.0 0.0 30.6 2,409 0.0 - 408.2 12.6
8/18/22 101.9 1417 55.6 0616 41.0 69 9 0 4.76 6.62 0.0 0.0 30.5 2,378 0.0 - 413.3 12.7
8/17/22 102.1 1535 56.4 0633 45.0 64 13 0 3.10 3.52 0.0 0.0 26.7 2,348 0.0 - 319.9 12.7
8/16/22 103.8 1454 50.2 0628 41.4 86 7 0 2.79 7.17 0.0 0.0 29.6 2,321 0.0 - 419.3 12.7
8/15/22 100.5 1609 49.6 0634 42.2 84 6 0 5.21 4.93 0.0 0.0 28.0 2,291 0.0 - 376.9 12.7
8/14/22 97.3 1533 48.5 0624 43.1 84 11 0 5.19 1.54 0.0 0.0 26.6 2,263 0.0 - 346.0 12.7
8/13/22 94.5 1432 45.6 0627 41.1 90 13 0 5.23 0.00 0.0 0.0 25.1 2,237 0.0 - 300.7 12.7
8/12/22 89.4 1533 42.8 0625 42.0 86 18 0 3.50 0.00 0.0 0.0 21.8 2,212 1.7 - 232.3 12.6
8/11/22 90.3 1421 45.9 0624 47.1 94 16 0 3.90 0.00 0.0 0.0 21.8 2,190 0.0 - 237.4 12.7
8/10/22 88.6 1556 50.7 0443 48.1 86 20 0 4.83 0.00 0.0 0.0 20.3 2,168 0.0 - 179.6 12.7
8/9/22 88.5 1244 52.8 0635 45.8 83 15 0 4.29 0.00 0.0 0.0 21.1 2,148 0.0 - 193.6 12.7
8/8/22 89.7 1353 48.8 0634 48.2 87 20 0 3.49 0.00 0.0 0.0 23.2 2,127 0.0 - 243.3 12.7
8/7/22 92.1 1702 44.5 0618 46.1 89 13 10 3.49 0.00 0.0 0.0 21.4 2,103 1.1 - 250.2 12.6
8/6/22 91.6 1546 49.1 0554 49.0 97 16 20 4.28 0.00 0.0 0.0 20.0 2,082 0.0 - 219.9 12.7
8/5/22 89.1 1446 58.1 0625 47.4 90 20 0 8.38 0.00 0.0 0.0 24.7 2,062 0.0 - 254.4 12.7
8/4/22 98.8 1410 59.6 0616 48.7 80 14 0 5.35 4.35 0.0 0.0 31.2 2,037 0.0 - 403.7 12.7
8/3/22 98.9 1420 64.0 0536 54.6 68 21 10 4.80 5.20 0.0 0.0 31.0 2,006 0.0 - 417.7 12.8
8/2/22 95.4 1338 56.2 0545 55.8 98 25 20 5.43 0.12 0.0 0.0 27.7 1,975 0.0 - 348.1 12.8
8/1/22 79.2 1356 60.3 0101 62.6 96 51 0 12.63 0.00 0.0 0.0 21.3 1,947 0.0 - 158.2 12.8
7/31/22 97.4 1704 64.3 0230 58.1 84 22 0 5.82 2.44 0.0 0.0 30.4 1,926 0.0 - 369.9 12.7
7/30/22 101.9 1611 63.6 0257 58.0 80 22 10 3.32 4.14 0.0 0.0 30.3 1,896 0.0 - 368.8 12.7
7/29/22 105.3 1443 62.5 0527 55.4 78 15 20 3.94 7.88 0.0 0.0 33.8 1,865 0.0 - 455.4 12.7
7/28/22 102.1 1256 60.0 0621 50.4 64 18 10 6.80 7.22 0.0 0.0 34.6 1,832 0.0 - 477.4 12.7
7/27/22 98.6 1335 54.3 0618 46.9 83 12 0 6.98 5.07 0.0 0.0 31.4 1,797 0.0 - 421.1 12.7
7/26/22 99.8 1433 57.5 0346 47.3 74 10 0 5.30 3.60 0.0 0.0 29.6 1,766 0.0 - 378.9 12.7
7/25/22 100.2 1424 53.7 0613 43.3 70 7 0 4.65 5.13 0.0 0.0 29.0 1,736 0.0 - 377.8 12.7
7/24/22 99.5 1500 50.2 0609 41.1 80 7 0 4.51 4.55 0.0 0.0 29.2 1,707 0.0 - 396.2 12.7
7/23/22 98.8 1428 46.6 0610 38.4 77 7 10 1.90 3.52 0.0 0.0 27.5 1,678 0.0 - 356.6 12.7
7/22/22 95.0 1603 57.3 0423 30.4 39 5 0 7.24 0.00 0.0 0.0 29.8 1,650 0.0 - 359.0 12.7
7/21/22 98.8 1455 52.5 0621 30.6 56 6 0 5.37 3.85 0.0 0.0 30.0 1,620 0.0 - 384.6 12.7
7/20/22 99.1 1329 46.7 0616 36.0 63 9 0 5.12 5.71 0.0 0.0 28.2 1,590 0.0 - 381.3 12.6
7/19/22 98.4 1413 47.6 0559 34.1 64 4 0 5.00 1.96 0.0 0.0 27.3 1,562 0.0 - 370.3 12.6
7/18/22 97.8 1305 53.7 0613 39.7 64 9 10 2.56 2.89 0.0 0.0 28.6 1,535 0.0 - 361.9 12.7
7/17/22 98.6 1426 48.6 0558 42.8 81 7 20 4.07 5.43 0.0 0.0 27.7 1,506 0.0 - 366.2 12.6
7/16/22 99.6 1403 47.2 0533 43.7 89 7 30 4.07 5.92 0.0 0.0 28.0 1,479 0.0 - 385.7 12.7
7/15/22 95.9 1551 48.2 0602 43.6 83 15 40 5.77 0.49 0.0 0.0 27.4 1,451 0.0 - 338.4 12.7
7/14/22 95.6 1357 52.3 0605 49.8 96 23 50 5.77 0.03 0.0 0.0 26.0 1,423 0.0 - 320.2 12.7
7/13/22 93.9 1453 51.6 0443 51.6 92 18 60 4.81 0.00 0.0 0.0 25.1 1,397 0.0 - 279.2 12.7
7/12/22 97.9 1424 51.6 0555 44.8 84 9 70 4.81 1.64 0.0 0.0 27.5 1,372 0.0 - 344.8 12.7
7/11/22 102.8 1517 54.8 0541 49.2 92 12 80 1.80 6.18 0.0 0.0 29.6 1,345 0.0 - 397.3 12.7
7/10/22 99.0 1733 49.9 0558 48.4 93 13 90 2.49 3.80 0.0 0.0 27.2 1,315 0.0 - 350.9 12.7
7/9/22 87.9 1557 56.7 0605 48.4 75 22 80 6.10 0.00 0.0 0.0 24.3 1,288 0.0 - 232.6 12.8
7/8/22 91.1 1509 59.6 0544 49.5 73 19 90 4.54 0.00 0.0 0.0 23.8 1,264 0.0 - 228.3 12.8
7/7/22 84.0 1416 52.6 0608 50.0 94 26 70 10.65 0.00 0.0 0.0 18.4 1,240 0.0 - 156.5 12.8
7/6/22 79.7 1521 52.8 0603 52.1 94 38 50 8.44 0.00 0.0 0.0 15.6 1,221 0.0 - 94.2 12.8
7/5/22 77.0 1559 56.7 0051 55.5 90 44 30 8.63 0.00 0.0 0.0 16.6 1,206 0.0 - 85.2 12.8
7/4/22 75.2 1532 49.4 0408 53.0 90 48 40 4.83 0.00 0.0 0.0 13.7 1,189 0.0 - 50.8 12.8
7/3/22 76.6 1528 50.3 0523 43.9 93 23 20 6.43 0.00 0.0 0.0 11.7 1,176 0.0 - 61.9 12.7
7/2/22 80.7 1347 47.5 0604 43.3 91 17 0 10.12 0.00 0.0 0.0 16.2 1,164 0.0 - 123.5 12.7
7/1/22 89.1 1358 45.6 0552 45.5 90 20 0 3.81 0.00 0.0 0.0 22.8 1,148 0.0 - 245.4 12.7
6/30/22 90.8 1339 48.9 0541 46.8 90 23 0 3.87 0.00 0.0 0.0 23.4 1,125 0.0 - 255.3 12.7
6/29/22 92.8 1403 45.2 0601 41.0 82 11 0 3.90 0.00 0.0 0.0 25.0 1,102 0.0 - 286.1 12.7
6/28/22 91.2 1444 55.1 0552 27.3 70 6 0 3.97 0.00 0.0 0.0 25.6 1,077 0.0 - 276.5 12.7
6/27/22 95.8 1447 47.3 0525 33.8 71 7 10 3.11 0.57 0.0 0.0 28.0 1,051 0.0 - 349.3 12.7
6/26/22 98.6 1402 47.1 0552 40.2 88 8 20 1.89 3.59 0.0 0.0 26.4 1,023 0.0 - 353.3 12.6
6/25/22 97.5 1519 48.0 0544 41.3 88 11 30 1.76 1.93 0.0 0.0 24.8 997 0.0 - 331.5 12.6
6/24/22 99.5 1501 50.0 0551 46.5 85 13 40 2.73 2.86 0.0 0.0 27.5 972 0.0 - 354.2 12.7
6/23/22 93.6 1537 50.6 0606 41.4 72 13 50 4.97 0.00 0.0 0.0 27.3 944 0.0 - 329.8 12.7
6/22/22 101.4 1350 48.4 0538 38.2 74 7 60 4.59 5.52 0.0 0.0 28.3 917 0.0 - 399.6 12.7
6/21/22 97.2 1746 44.7 0543 34.3 85 6 70 2.15 2.91 0.0 0.0 23.6 889 0.5 - 318.9 12.7
6/20/22 88.6 1704 42.8 0558 39.1 92 12 80 5.93 0.00 0.0 0.0 18.7 865 1.6 - 215.4 12.7
6/19/22 80.4 1626 39.0 0547 40.6 96 21 60 9.21 0.00 0.0 0.0 14.9 847 3.1 - 105.9 12.7
6/18/22 72.3 1436 43.2 0531 38.7 83 24 70 2.00 0.00 0.0 0.0 8.8 832 0.8 - 25.4 12.7
6/17/22 66.5 1523 44.6 0610 38.0 85 28 80 0.00 0.00 0.0 0.0 5.7 823 0.8 - 0.3 12.7
6/16/22 77.1 1444 46.6 0059 39.7 85 19 90 5.44 0.00 0.0 0.0 10.2 817 0.0 - 51.9 12.7
6/15/22 87.6 1402 44.4 0542 37.5 93 9 100 3.88 0.00 0.0 0.0 19.5 807 0.7 - 196.1 12.7
6/14/22 84.4 1716 37.3 0552 38.6 97 11 80 10.69 0.00 0.0 0.0 17.2 787 4.6 - 154.2 12.7
6/13/22 75.8 1455 47.8 0542 39.9 82 16 90 5.06 0.00 0.0 0.0 10.6 770 0.0 - 49.4 12.8
6/12/22 69.7 1351 49.8 0058 51.7 86 46 100 0.00 0.00 0.0 0.0 13.1 760 0.0 - 18.8 12.8
6/11/22 85.7 1625 55.3 0517 54.9 92 33 100 14.65 0.00 0.0 0.0 23.8 746 0.0 - 225.0 12.7
6/10/22 92.5 1508 58.4 2347 50.8 85 21 100 8.81 0.00 0.0 0.0 27.2 723 0.0 - 299.6 12.8
6/9/22 88.4 1447 59.0 0549 42.2 49 15 100 8.81 0.00 0.0 0.0 25.1 696 0.0 - 246.4 12.8
6/8/22 84.1 1504 60.7 0350 45.0 57 18 100 10.91 0.00 0.0 0.0 21.7 670 0.0 - 165.0 12.8
6/7/22 85.8 1456 43.8 0543 41.6 99 16 100 11.14 0.00 0.0 0.0 18.8 649 1.4 - 183.6 12.7
6/6/22 80.6 1532 50.7 0533 45.2 87 9 80 9.21 0.00 0.0 0.0 15.5 630 0.0 - 111.4 12.8
6/5/22 73.0 1539 53.6 0050 55.4 100 48 90 3.54 0.00 0.0 0.0 12.0 614 0.0 - 36.1 12.8
6/4/22 69.8 1521 53.8 0532 43.9 100 30 100 0.00 0.00 0.0 0.0 9.0 602 0.0 - 7.1 12.8
6/3/22 74.8 1309 55.6 0558 46.3 75 21 100 8.04 0.00 0.0 0.0 14.5 594 0.0 - 67.4 12.7
6/2/22 83.9 1423 55.8 0601 38.3 62 18 80 11.71 0.00 0.0 0.0 20.7 579 0.0 - 167.5 12.8
6/1/22 86.8 1330 42.3 0548 36.6 88 15 90 4.84 0.00 0.0 0.0 20.5 558 1.6 - 203.3 12.7
5/31/22 83.0 1741 34.4 0555 32.0 94 9 70 10.22 0.00 0.0 0.0 15.9 538 3.3 - 129.5 12.7
5/30/22 73.8 1615 45.0 0500 34.5 64 18 80 4.45 0.00 0.0 0.0 9.4 522 0.0 - 40.6 12.7
5/29/22 69.5 1541 43.8 0532 39.4 87 29 90 0.00 0.00 0.0 0.0 7.2 512 1.7 - 13.1 12.7
5/28/22 64.3 1546 49.0 0033 45.9 88 46 100 0.00 0.00 0.0 0.0 6.2 505 0.0 - 0.0 12.8
5/27/22 76.6 1245 53.4 0059 46.5 86 26 100 8.11 0.00 0.0 0.0 14.2 499 0.0 - 75.3 12.8
5/26/22 81.8 1314 48.5 0604 43.6 68 25 80 12.21 0.00 0.0 0.0 18.5 485 0.0 - 135.2 12.7
5/25/22 95.5 1351 47.8 0600 41.5 90 12 90 1.71 0.18 0.0 0.0 24.7 466 0.0 - 321.9 12.7
5/24/22 94.3 1618 43.8 0556 39.0 94 7 100 2.96 0.00 0.0 0.0 23.0 442 1.2 - 287.3 12.7
5/23/22 85.9 1544 56.3 0616 39.5 53 18 100 10.91 0.00 0.0 0.0 20.7 419 0.0 - 177.3 12.7
5/22/22 82.5 1547 43.8 0559 34.6 76 15 100 10.39 0.00 0.0 0.0 18.2 398 0.5 - 140.2 12.7
5/21/22 84.5 1635 36.2 0611 28.0 83 7 100 10.63 0.00 0.0 0.0 16.8 380 2.7 - 143.6 12.6
5/20/22 76.4 1631 30.8 0609 21.2 93 8 90 6.15 0.00 1.0 0.0 10.2 363 6.0 - 57.8 12.6
5/19/22 80.3 1423 50.6 0046 35.7 70 13 70 9.61 0.00 0.0 0.0 16.9 353 0.0 - 108.2 12.8
5/18/22 87.5 1432 58.9 0546 42.0 51 17 80 4.89 0.00 0.0 0.0 22.2 336 0.0 - 197.3 12.8
5/17/22 82.9 1537 40.7 0609 39.9 94 12 60 10.27 0.00 0.0 0.0 17.0 314 1.8 - 139.3 12.7
5/16/22 76.4 1535 45.2 0124 42.2 79 25 40 7.15 0.00 0.0 0.0 11.7 297 0.0 - 64.9 12.7
5/15/22 78.6 1619 46.6 0612 45.2 97 28 20 8.97 0.00 0.0 0.0 14.6 285 0.0 - 95.4 12.7
5/14/22 84.5 1526 51.4 0613 45.8 88 15 0 10.12 0.00 0.0 0.0 18.7 270 0.0 - 154.4 12.8
5/13/22 72.9 1548 41.0 0507 46.2 94 39 0 5.36 0.00 0.0 0.0 10.8 252 2.1 - 41.8 12.7
5/12/22 64.7 1614 38.9 0605 36.0 86 30 0 0.00 0.00 0.0 0.0 4.0 241 7.4 - 0.0 12.7
5/11/22 64.3 1508 33.1 0432 33.4 93 24 0 0.00 0.00 0.0 0.0 4.1 237 9.6 - 0.0 12.7
5/10/22 58.0 1357 35.7 0446 32.5 87 26 0 0.00 0.00 0.0 0.0 0.5 233 14.5 - 0.0 12.7
5/9/22 53.9 1346 36.8 0059 33.5 90 30 10 0.00 0.00 0.0 0.0 0.2 232 15.0 - 0.0 12.6
5/8/22 50.8 1402 37.6 1725 34.6 92 47 20 0.00 0.00 0.0 0.0 0.0 232 17.3 - 0.0 12.7
5/7/22 64.6 1451 39.3 0101 40.0 94 35 30 0.00 0.00 0.0 0.0 3.9 232 3.2 - 0.0 12.7
5/6/22 66.7 1349 46.9 0020 48.5 95 49 40 0.00 0.00 0.0 0.0 6.3 228 0.0 - 0.2 12.8
5/5/22 68.2 1250 46.8 0249 42.0 91 22 50 0.00 0.00 0.0 0.0 8.0 222 0.0 - 3.2 12.7
5/4/22 83.9 1506 36.8 0522 36.8 95 15 30 11.25 0.00 0.0 0.0 16.9 214 6.0 - 167.2 12.7
5/3/22 79.9 1725 29.2 0615 31.7 95 13 10 6.99 0.00 2.9 0.0 11.1 197 8.3 - 82.5 12.6
5/2/22 61.6 1359 42.0 0101 34.9 85 33 20 0.00 0.00 0.0 0.0 3.3 186 0.2 - 0.0 12.7
5/1/22 78.5 1736 32.7 0624 32.0 98 8 0 6.53 0.00 0.0 0.0 11.4 183 2.9 - 71.8 12.7
4/30/22 67.3 1358 44.9 0540 43.6 94 43 0 0.00 0.00 0.0 0.0 6.6 171 0.0 - 0.6 12.7
4/29/22 71.8 1505 37.6 0629 33.3 84 13 0 1.08 0.00 0.0 0.0 8.6 165 4.2 - 24.8 12.7
4/28/22 62.5 1648 38.4 0635 35.2 88 29 0 0.00 0.00 0.0 0.0 3.1 156 7.9 - 0.0 12.7
4/27/22 67.7 1357 41.6 0059 34.2 85 18 0 0.00 0.00 0.0 0.0 5.6 153 5.9 - 5.7 12.7
4/26/22 68.9 1434 46.4 0654 39.5 80 29 10 0.00 0.00 0.0 0.0 6.0 147 0.0 - 8.8 12.7
4/25/22 72.9 1428 41.9 0426 38.6 86 26 20 4.17 0.00 0.0 0.0 9.2 141 2.5 - 37.2 12.7
4/24/22 75.4 1501 34.4 0616 36.8 99 19 0 6.99 0.00 0.0 0.0 11.1 132 5.1 - 62.2 12.7
4/23/22 71.6 1515 31.8 0632 36.3 99 18 0 0.42 0.00 0.1 0.0 8.0 121 6.7 - 19.2 12.7
4/22/22 62.1 1708 36.5 0623 39.0 98 33 0 0.00 0.00 0.0 0.0 2.5 113 7.6 - 0.0 12.7
4/21/22 55.8 1333 41.4 2321 39.5 95 47 0 0.00 0.00 0.0 0.0 0.6 111 10.7 - 0.0 12.7
4/20/22 55.7 1456 33.4 0153 42.2 100 64 0 0.00 0.00 0.0 0.0 0.9 110 6.5 - 0.0 12.7
4/19/22 56.8 1443 34.1 0048 38.9 98 48 0 0.00 0.00 0.0 0.0 1.2 109 10.3 - 0.0 12.7
4/18/22 59.0 1246 35.0 0505 41.2 96 47 0 0.00 0.00 0.0 0.0 1.6 108 6.3 - 0.0 12.7
4/17/22 68.8 1507 27.6 0649 28.8 100 11 0 0.00 0.00 4.2 0.2 5.3 106 11.1 - 3.8 12.6
4/16/22 61.5 1445 34.6 0035 41.3 98 27 0 0.00 0.00 0.0 0.0 3.0 101 3.0 - 0.0 12.7
4/15/22 61.1 1302 34.6 0728 38.0 99 32 0 0.00 0.00 0.0 0.0 2.3 98 8.0 - 0.0 12.7
4/14/22 54.2 1511 40.1 0059 45.1 97 80 10 0.00 0.00 0.0 0.0 0.7 96 2.7 - 0.0 12.7
4/13/22 52.1 1503 30.6 0101 34.9 95 43 20 0.00 0.00 0.9 0.0 0.1 95 15.9 - 0.0 12.6
4/12/22 51.8 1544 25.6 0611 26.7 97 32 30 0.00 0.00 5.8 1.2 0.0 95 16.0 - 0.0 12.6
4/11/22 49.1 1417 34.1 0016 32.4 94 35 40 0.00 0.00 0.0 0.0 0.0 95 16.0 - 0.0 12.7
4/10/22 62.2 1309 29.4 0555 25.6 88 14 50 0.00 0.00 2.0 0.0 3.3 95 8.8 - 0.0 12.7
4/9/22 73.4 1544 35.3 0016 25.2 81 8 60 2.77 0.00 0.0 0.0 7.9 92 3.4 - 29.1 12.7
4/8/22 81.2 1527 39.4 0613 33.8 80 6 40 9.56 0.00 0.0 0.0 14.6 84 4.1 - 121.7 12.7
4/7/22 86.9 1648 36.5 0542 33.4 92 10 20 6.61 0.00 0.0 0.0 18.3 69 6.2 - 189.9 12.7
4/6/22 85.9 1714 31.0 0632 32.4 97 8 0 7.82 0.00 1.2 0.0 12.5 51 8.4 - 126.8 12.6
4/5/22 70.7 1719 37.4 0052 33.0 99 15 0 0.22 0.00 0.0 0.0 6.1 38 9.9 - 17.7 12.7
4/4/22 60.3 1234 41.0 0058 40.5 96 50 0 0.00 0.00 0.0 0.0 2.5 32 1.3 - 0.0 12.7
4/3/22 73.1 1338 47.3 0518 24.4 54 7 0 2.86 0.00 0.0 0.0 9.1 30 0.0 - 30.1 12.8
4/2/22 76.8 1605 36.4 0658 33.3 92 11 10 5.82 0.00 0.0 0.0 11.1 21 2.7 - 56.2 12.7
4/1/22 74.2 1503 33.1 0652 38.5 99 25 20 5.53 0.00 0.0 0.0 9.6 10 7.0 - 44.9 12.6
3/31/22 70.8 1715 36.7 0702 38.3 100 18 30 0.10 0.00 0.0 0.0 6.4 - 8.0 1,731 14.9 12.7
3/30/22 63.4 1447 43.3 0652 41.8 92 36 40 0.00 0.00 0.0 0.0 3.4 - 0.8 1,723 0.0 12.8
3/29/22 66.5 1432 39.8 0718 44.2 98 36 50 0.00 0.00 0.0 0.0 5.3 - 5.0 1,722 0.8 12.7
3/28/22 52.5 1351 44.4 2116 45.4 98 73 60 0.00 0.00 0.0 0.0 0.1 - 1.2 1,717 0.0 12.7
3/27/22 62.8 1211 41.3 0616 38.8 98 33 70 0.00 0.00 0.0 0.0 3.1 - 3.3 1,716 0.0 12.7
3/26/22 77.2 1403 36.9 0719 40.3 93 15 80 5.16 0.00 0.0 0.0 10.0 - 1.8 1,713 51.5 12.7
3/25/22 79.0 1547 37.3 0514 34.5 100 10 60 7.30 0.00 0.0 0.0 11.8 - 4.7 1,711 81.8 12.7
3/24/22 82.4 1613 36.6 0651 41.9 95 21 0 8.53 0.00 0.0 0.0 12.8 - 6.6 1,706 110.5 12.6
3/23/22 80.1 1509 42.8 0653 38.7 95 12 0 9.71 0.00 0.0 0.0 15.0 - 1.2 1,700 115.4 12.7
3/22/22 82.0 1715 41.6 0713 41.8 89 21 0 9.70 0.00 0.0 0.0 16.2 - 1.3 1,699 122.0 12.7
3/21/22 76.2 1625 48.6 0744 36.6 77 27 0 5.21 0.00 0.0 0.0 9.8 - 0.0 1,697 43.6 12.8
3/20/22 64.6 1629 35.0 0648 29.9 81 17 0 0.00 0.00 0.0 0.0 3.5 - 9.0 1,697 0.0 12.6
3/19/22 54.2 1741 36.9 0033 38.4 95 57 0 0.00 0.00 0.0 0.0 0.3 - 7.6 1,688 0.0 12.7
3/18/22 71.8 1544 29.4 0613 35.8 98 22 0 0.66 0.00 3.2 0.0 6.8 - 7.9 1,681 16.1 12.6
3/17/22 68.5 1324 36.1 0119 34.8 90 23 0 0.00 0.00 0.0 0.0 6.0 - 6.8 1,673 5.4 12.7
3/16/22 70.3 1551 30.5 0725 34.2 99 17 0 0.05 0.00 0.9 0.0 6.1 - 9.7 1,666 12.7 12.7
3/15/22 63.5 1525 45.9 0002 44.6 98 36 0 0.00 0.00 0.0 0.0 4.3 - 0.0 1,656 0.0 12.7
3/14/22 69.0 1457 29.4 0751 36.3 95 19 0 0.00 0.00 2.9 0.0 5.9 - 7.9 1,656 4.2 12.6
3/13/22 59.4 1538 39.3 2320 34.6 92 25 0 0.00 0.00 0.0 0.0 1.9 - 6.1 1,648 0.0 12.7
3/12/22 64.7 1149 22.6 0627 21.4 95 4 0 0.00 0.00 6.6 4.7 3.8 - 8.0 1,642 0.0 12.6
3/11/22 71.5 1620 21.0 0630 16.8 82 10 0 0.94 0.00 7.5 7.2 6.8 - 10.1 1,634 21.3 12.6
3/10/22 62.2 1524 26.2 2321 16.6 80 6 0 0.00 0.00 3.0 0.9 3.0 - 13.2 1,624 0.0 12.7
3/9/22 63.3 1417 39.6 0107 30.4 67 27 0 0.00 0.00 0.0 0.0 3.8 - 0.8 1,611 0.0 12.7
3/8/22 71.3 1453 26.8 0345 24.7 87 14 0 0.76 0.00 6.9 2.3 7.6 - 8.8 1,610 22.9 12.7
3/7/22 63.9 1436 24.0 0246 19.1 90 8 0 0.00 0.00 4.5 3.4 3.8 - 12.3 1,601 0.0 12.7
3/6/22 60.0 1454 28.4 2218 27.7 95 19 0 0.00 0.00 3.1 0.0 2.1 - 13.7 1,589 0.0 12.6
3/5/22 51.6 1545 32.6 0520 30.1 88 36 0 0.00 0.00 0.0 0.0 0.0 - 15.5 1,575 0.0 12.6
3/4/22 53.0 1241 34.6 2359 36.5 98 26 0 0.00 0.00 0.0 0.0 0.2 - 9.8 1,560 0.0 12.7
3/3/22 53.2 1547 44.8 0702 43.8 98 52 0 0.00 0.00 0.0 0.0 0.3 - 0.4 1,550 0.0 12.7
3/2/22 69.6 1150 33.0 0229 32.2 92 10 0 0.00 0.00 0.0 0.0 5.7 - 8.3 1,550 12.3 12.7
3/1/22 73.8 1441 32.0 0637 31.5 90 16 0 3.61 0.00 0.0 0.0 7.5 - 8.3 1,541 31.6 12.7
2/28/22 72.0 1419 28.4 0648 35.2 96 27 - 2.48 0.00 5.8 0.0 7.5 - 8.2 1,533 26.4 12.7
2/27/22 66.8 1551 28.7 0653 32.1 98 18 - 0.00 0.00 2.9 0.0 3.9 - 13.9 1,525 1.1 12.6
2/26/22 56.6 1425 17.8 0643 26.2 97 24 - 0.00 0.00 8.3 8.0 0.8 - 15.4 1,511 0.0 12.6
2/25/22 60.2 1551 20.2 0350 20.1 92 14 - 0.00 0.00 10.5 8.7 1.6 - 14.6 1,495 0.0 12.6
2/24/22 54.5 1352 13.7 0648 15.6 90 13 - 0.00 0.00 8.3 7.9 0.6 - 15.4 1,481 0.0 12.5
2/23/22 51.0 1421 15.4 0642 17.0 95 16 - 0.00 0.00 13.8 11.8 0.0 - 18.4 1,465 0.0 12.5
2/22/22 45.6 1349 27.8 2346 28.7 98 40 - 0.00 0.00 1.9 0.1 0.0 - 23.8 1,447 0.0 12.6
2/21/22 49.6 1350 34.6 0632 28.2 94 32 - 0.00 0.00 0.0 0.0 0.0 - 18.2 1,423 0.0 12.6
2/20/22 63.9 1335 35.4 0430 31.6 85 26 - 0.00 0.00 0.0 0.0 3.2 - 7.4 1,405 0.0 12.7
2/19/22 70.7 1412 24.7 0706 29.4 94 17 - 1.07 0.00 7.7 5.9 6.6 - 9.5 1,398 20.4 12.6
2/18/22 68.6 1521 26.5 0132 26.7 88 17 - 0.00 0.00 9.4 2.6 4.3 - 14.2 1,388 2.4 12.6
2/17/22 66.4 1430 27.1 2349 22.2 83 15 - 0.00 0.00 2.6 0.4 4.7 - 5.7 1,374 0.2 12.7
2/16/22 67.4 1447 25.6 0638 25.0 88 16 - 0.00 0.00 3.3 1.8 6.0 - 7.8 1,368 3.9 12.6
2/15/22 58.1 1458 34.2 0702 25.5 81 19 - 0.00 0.00 0.0 0.0 1.4 - 11.9 1,360 0.0 12.6
2/14/22 64.9 1219 29.9 0541 35.4 97 30 - 0.00 0.00 2.1 0.0 3.1 - 13.8 1,349 0.0 12.6
2/13/22 76.3 1604 27.9 0625 33.8 97 21 - 4.96 0.00 6.8 0.3 7.5 - 12.7 1,335 47.6 12.6
2/12/22 75.7 1400 31.8 0636 31.0 90 17 - 5.93 0.00 0.1 0.0 8.0 - 11.6 1,322 53.8 12.6
2/11/22 78.8 1509 32.0 0715 34.1 81 17 - 6.89 0.00 0.0 0.0 9.1 - 10.5 1,311 57.6 12.6
2/10/22 81.1 1614 39.1 2250 35.8 84 16 0 7.10 0.00 0.0 0.0 12.9 - - - - 12.8
2/9/22 74.6 1347 42.1 0042 25.9 50 14 0 4.03 0.00 0.0 0.0 10.8 - - - - 12.8
2/8/22 75.4 1320 26.7 0434 24.4 91 10 0 6.80 0.00 7.5 5.4 8.1 - - - - 12.6
2/7/22 73.8 1611 25.3 0500 26.3 90 15 0 3.38 0.00 9.2 4.6 6.1 - - - - 12.6
2/6/22 73.6 1509 29.1 0001 23.1 83 11 0 3.17 0.00 3.1 0.0 6.3 - - - - 12.6
2/5/22 70.8 1452 26.9 0611 25.5 96 12 0 0.21 0.00 9.0 1.9 5.0 - - - - 12.7
2/4/22 65.5 1416 29.0 0001 26.2 91 19 0 0.00 0.00 3.2 0.0 3.8 - - - - 12.7
2/3/22 66.3 1452 24.1 0534 24.7 93 15 0 0.00 0.00 9.6 7.7 3.1 - - - - 12.6
2/2/22 57.1 1518 21.3 0100 21.5 87 23 0 0.00 0.00 9.5 7.3 1.0 - - - - 12.6
2/1/22 57.1 1502 19.8 0450 10.8 98 7 0 0.00 0.00 10.0 8.4 1.2 - - - - 12.6
1/31/22 59.1 1507 25.5 0724 33.2 98 26 0 0.00 0.00 5.1 2.6 2.2 - - - - 12.7
1/30/22 64.0 1443 21.7 0725 27.1 94 17 0 0.00 0.00 8.3 6.7 3.5 - - - - 12.5
1/29/22 64.4 1249 20.2 0722 23.8 94 13 0 0.00 0.00 8.6 8.3 3.6 - - - - 12.6
1/28/22 65.6 1435 25.5 2359 21.9 89 17 0 0.00 0.00 4.0 1.9 3.6 - - - - 12.7
1/27/22 64.1 1417 24.3 0718 23.7 89 16 0 0.00 0.00 5.7 3.2 3.4 - - - - 12.6
1/26/22 60.1 1418 30.6 2359 23.5 86 23 0 0.00 0.00 0.3 0.0 2.3 - - - - 12.7
1/25/22 65.2 1530 23.2 0611 20.2 99 9 0 0.00 0.00 6.8 4.8 4.1 - - - - 12.7
1/24/22 66.2 1340 24.9 0702 31.2 97 28 0 0.00 0.00 8.7 6.5 3.8 - - - - 12.5
1/23/22 65.0 1530 29.1 2342 24.7 92 19 0 0.00 0.00 2.2 0.0 4.6 - - - - 12.8
1/22/22 65.7 1536 50.7 0620 19.8 31 16 0 0.00 0.00 0.0 0.0 7.5 - - - - 12.8
1/21/22 63.8 1201 29.8 0717 23.6 100 16 0 0.00 0.00 2.3 0.0 4.9 - - - - 12.7
1/20/22 70.4 1400 30.0 0506 35.6 98 31 0 0.08 0.00 6.5 0.0 4.9 - - - - 12.7
1/19/22 68.2 1509 27.6 0502 33.5 99 27 0 0.00 0.00 6.3 0.4 4.2 - - - - 12.6
1/18/22 62.2 1420 28.2 0530 35.3 100 37 0 0.00 0.00 7.1 0.0 3.0 - - - - 12.7
1/17/22 62.4 1318 25.4 0605 32.4 98 32 0 0.00 0.00 8.6 6.6 2.5 - - - - 12.6
1/16/22 63.2 1342 29.1 2359 33.2 97 32 0 0.00 0.00 4.6 0.0 1.7 - - - - 12.7
1/15/22 68.6 1343 30.4 0001 31.2 92 23 0 0.00 0.00 0.7 0.0 4.2 - - - - 12.7
1/14/22 66.5 1346 26.0 0729 29.3 100 21 0 0.00 0.00 8.3 3.5 5.5 - - - - 12.7
1/13/22 60.2 1326 30.4 2335 40.9 100 42 0 0.00 0.00 1.0 0.0 1.9 - - - - 12.7
1/12/22 67.3 1501 27.4 0703 34.2 99 24 0 0.00 0.00 5.3 1.2 3.6 - - - - 12.7
1/11/22 64.3 1332 28.7 0744 35.8 99 39 0 0.00 0.00 7.4 0.0 3.4 - - - - 12.7
1/10/22 62.6 1454 32.3 2359 34.4 96 34 0 0.00 0.00 0.0 0.0 2.6 - - - - 12.8
1/9/22 55.8 1419 31.5 2124 31.7 96 43 0 0.00 0.00 0.2 0.0 0.9 - - - - 12.6
1/8/22 55.6 1537 25.1 0434 31.9 100 46 0 0.00 0.00 10.6 4.9 0.7 - - - - 12.7
1/7/22 54.2 1210 32.7 2316 41.7 98 65 0 0.00 0.00 0.0 0.0 0.4 - - - - 12.8
1/6/22 60.1 1459 39.0 0627 45.7 100 65 0 0.00 0.00 0.0 0.0 1.3 - - - - 12.8
1/5/22 58.2 1428 42.3 2055 47.2 100 74 0 0.00 0.00 0.0 0.0 1.7 - - - - 12.8
1/4/22 53.6 1206 41.4 0727 44.5 100 69 0 0.00 0.00 0.0 0.0 0.4 - - - - 12.8
1/3/22 49.9 1857 39.8 0627 42.0 98 71 0 0.00 0.00 0.0 0.0 0.0 - - - - 12.8
1/2/22 48.9 1315 19.5 0731 28.4 96 48 0 0.00 0.00 8.6 6.6 0.0 - - - - 12.6
1/1/22 52.0 1348 20.8 0720 24.8 97 30 0 0.00 0.00 14.9 11.0 0.1 - - - - 12.7
12/31/21 46.1 1502 31.6 0447 30.5 92 50 0 0.00 0.00 0.1 0.0 0.0 - - - - 12.7
12/30/21 45.8 1334 27.4 0556 32.8 100 70 0 0.00 0.00 5.2 0.6 0.0 - - - - 12.6
12/29/21 40.2 1407 32.0 0646 32.7 100 78 0 0.00 0.00 0.0 0.0 0.0 - - - - 12.6
12/28/21 36.8 1354 28.9 0610 31.0 100 67 0 0.00 0.00 5.3 0.0 0.0 - - - - 12.6
12/27/21 40.5 1419 31.4 2201 32.0 95 67 0 0.00 0.00 1.4 0.0 0.0 - - - - 12.7
12/26/21 40.7 1122 32.7 0619 33.1 97 75 0 0.00 0.00 0.0 0.0 0.0 - - - - 12.6
12/25/21 46.0 1215 32.7 0001 36.8 97 72 0 0.00 0.00 0.0 0.0 0.0 - - - - 12.7
12/24/21 46.0 1231 37.3 0744 38.3 96 67 0 0.00 0.00 0.0 0.0 0.0 - - - - 12.8
12/23/21 55.6 1145 42.4 2231 44.6 98 68 0 0.00 0.00 0.0 0.0 0.7 - - - - 12.6
12/22/21 51.6 2353 37.7 0727 41.2 100 77 0 0.00 0.00 0.0 0.0 0.0 - - - - 12.6
12/21/21 47.3 1114 34.6 0628 38.4 100 71 0 0.00 0.00 0.0 0.0 0.0 - - - - 12.6
12/20/21 39.6 1207 37.6 2224 38.2 100 99 0 0.00 0.00 0.0 0.0 0.0 - - - - 12.7
12/19/21 42.8 1522 24.2 0715 32.3 100 78 0 0.00 0.00 8.6 7.4 0.0 - - - - 12.5
12/18/21 55.0 1355 23.5 0501 29.2 98 40 0 0.00 0.00 13.4 9.6 0.5 - - - - 12.6
12/17/21 54.2 1405 25.0 2340 31.9 100 41 0 0.00 0.00 9.7 3.5 0.2 - - - - 12.7
12/16/21 50.4 1408 35.7 2359 38.6 98 59 0 0.00 0.00 0.0 0.0 0.0 - - - - 12.6
12/15/21 47.3 1855 25.2 0009 36.1 99 70 0 0.00 0.00 8.3 2.0 0.0 - - - - 12.6
12/14/21 43.8 1451 25.2 2359 31.1 98 55 0